Time;durP1;ratioP1;P1;durP2;ratioP2;P2;SDS_P1;SDS_P2;PMS_P1;PMS_P2;Temp;Humidity;BMP_temperature;BMP_pressure;BME280_temperature;BME280_humidity;BME280_pressure;Samples;Min_cycle;Max_cycle;Signal;HPM_P1;HPM_P2
2024/04/13 00:01:27;;;;;;;5.63;3.20;;;5.90;99.90;;;;;;1894737;75;25260;-87
2024/04/13 00:04:15;;;;;;;5.87;2.47;;;6.20;99.90;;;;;;1907105;75;25166;-88
2024/04/13 00:09:49;;;;;;;6.83;2.90;;;6.50;99.90;;;;;;1956817;72;26932;-88
2024/04/13 00:12:38;;;;;;;9.93;3.50;;;6.40;99.90;;;;;;1948033;73;25790;-87
2024/04/13 00:15:27;;;;;;;5.67;2.87;;;6.30;99.90;;;;;;1927653;73;25253;-87
2024/04/13 00:21:28;;;;;;;14.47;6.23;;;6.20;99.90;;;;;;1975274;71;27054;-88
2024/04/13 00:27:08;;;;;;;17.43;8.30;;;6.30;99.90;;;;;;1946301;72;26963;-88
2024/04/13 00:29:58;;;;;;;18.90;8.47;;;6.30;99.90;;;;;;1920740;73;25191;-88
2024/04/13 00:35:32;;;;;;;14.13;6.93;;;6.10;99.90;;;;;;1944043;72;27538;-88
2024/04/13 00:38:20;;;;;;;16.73;6.93;;;6.10;99.90;;;;;;1946163;72;25179;-87
2024/04/13 00:41:09;;;;;;;12.07;6.03;;;6.00;99.90;;;;;;1959078;72;25222;-87
2024/04/13 00:44:00;;;;;;;14.47;6.03;;;6.10;99.90;;;;;;1935984;72;25221;-88
2024/04/13 00:46:48;;;;;;;10.20;5.80;;;6.20;99.90;;;;;;1930538;73;25169;-87
2024/04/13 00:49:39;;;;;;;14.23;5.83;;;6.20;99.90;;;;;;1934056;73;25310;-88
2024/04/13 00:52:28;;;;;;;14.07;6.40;;;6.10;99.90;;;;;;1967835;72;25504;-87
2024/04/13 00:55:17;;;;;;;16.67;6.33;;;6.00;99.90;;;;;;1961584;71;25811;-86
2024/04/13 00:58:06;;;;;;;12.37;5.60;;;5.90;99.90;;;;;;1966715;71;25345;-87
2024/04/13 01:00:56;;;;;;;13.33;6.00;;;5.80;99.90;;;;;;1959779;73;25210;-86
2024/04/13 01:03:45;;;;;;;15.70;6.13;;;5.70;99.90;;;;;;1967834;72;25701;-86
2024/04/13 01:09:20;;;;;;;12.83;5.57;;;5.60;99.90;;;;;;1947414;72;28185;-87
2024/04/13 01:15:00;;;;;;;17.03;6.03;;;5.60;99.90;;;;;;1921295;74;26922;-88
2024/04/13 01:17:48;;;;;;;17.13;6.43;;;5.60;99.90;;;;;;1916291;75;25791;-88
2024/04/13 01:20:38;;;;;;;20.47;6.37;;;5.60;99.90;;;;;;1924467;73;25273;-87
2024/04/13 01:23:29;;;;;;;22.77;5.70;;;5.50;99.90;;;;;;1936584;73;25326;-88
2024/04/13 01:26:18;;;;;;;34.73;5.67;;;5.20;99.90;;;;;;1929359;73;25332;-87
2024/04/13 01:29:08;;;;;;;23.70;5.50;;;5.00;99.90;;;;;;1932119;73;25253;-87
2024/04/13 01:31:57;;;;;;;18.40;5.67;;;5.00;99.90;;;;;;1936799;73;25504;-87
2024/04/13 01:34:44;;;;;;;18.57;5.03;;;4.90;99.90;;;;;;1938164;73;25302;-87
2024/04/13 01:37:33;;;;;;;22.87;4.83;;;4.90;99.90;;;;;;1919149;73;25229;-87
2024/04/13 01:43:13;;;;;;;15.70;5.20;;;4.90;99.90;;;;;;1948818;71;27121;-88
2024/04/13 01:46:02;;;;;;;18.13;5.23;;;5.00;99.90;;;;;;1880761;75;25241;-88
2024/04/13 01:48:51;;;;;;;14.50;6.03;;;5.10;99.90;;;;;;1885732;74;25247;-88
2024/04/13 01:54:24;;;;;;;16.03;5.77;;;5.10;99.90;;;;;;1940417;72;27127;-88
2024/04/13 02:00:07;;;;;;;20.77;5.73;;;5.20;99.90;;;;;;1975120;72;27032;-89
2024/04/13 02:02:56;;;;;;;40.60;5.77;;;5.10;99.90;;;;;;1916398;75;25226;-88
2024/04/13 02:05:44;;;;;;;40.20;5.47;;;5.10;99.90;;;;;;1916457;75;25671;-87
2024/04/13 02:08:34;;;;;;;39.30;5.13;;;4.90;99.90;;;;;;1916181;73;25204;-88
2024/04/13 02:11:23;;;;;;;34.27;6.00;;;4.80;99.90;;;;;;1930966;73;25722;-87
2024/04/13 02:14:11;;;;;;;46.33;4.93;;;4.90;99.90;;;;;;1927118;73;25229;-90
2024/04/13 02:17:00;;;;;;;51.20;5.10;;;4.90;99.90;;;;;;1946282;73;25201;-87
2024/04/13 02:19:49;;;;;;;42.97;4.87;;;5.00;99.90;;;;;;1916109;73;25282;-88
2024/04/13 02:22:37;;;;;;;31.17;4.57;;;4.90;99.90;;;;;;1916296;73;25174;-87
2024/04/13 02:25:26;;;;;;;35.97;4.10;;;4.90;99.90;;;;;;1917586;73;25750;-87
2024/04/13 02:28:15;;;;;;;29.40;4.07;;;4.90;99.90;;;;;;1916220;73;25233;-87
2024/04/13 02:33:43;;;;;;;11.90;3.67;;;5.20;99.90;;;;;;1926175;72;27088;-88
2024/04/13 02:36:32;;;;;;;28.13;4.63;;;5.30;99.90;;;;;;1933423;73;25249;-88
2024/04/13 02:42:01;;;;;;;18.20;4.97;;;5.40;99.90;;;;;;1953852;72;27099;-88
2024/04/13 02:44:50;;;;;;;10.83;3.87;;;5.40;99.90;;;;;;1868700;76;25582;-88
2024/04/13 02:47:39;;;;;;;23.33;4.83;;;5.40;99.90;;;;;;1817277;78;25725;-88
2024/04/13 02:50:28;;;;;;;16.53;4.77;;;5.50;99.90;;;;;;1855211;76;25219;-87
2024/04/13 02:53:16;;;;;;;14.53;4.53;;;5.50;99.90;;;;;;1857667;76;25272;-87
2024/04/13 02:56:06;;;;;;;15.87;4.73;;;5.60;99.90;;;;;;1805848;77;25354;-88
2024/04/13 02:58:54;;;;;;;20.83;4.60;;;5.60;99.90;;;;;;1831381;77;25316;-88
2024/04/13 03:01:43;;;;;;;21.20;5.13;;;5.60;99.90;;;;;;1835512;77;25190;-88
2024/04/13 03:04:32;;;;;;;18.90;5.03;;;5.60;99.90;;;;;;1850420;76;25240;-88
2024/04/13 03:07:20;;;;;;;23.87;5.20;;;5.50;99.90;;;;;;1857079;76;25326;-88
2024/04/13 03:10:10;;;;;;;16.90;4.67;;;5.50;99.90;;;;;;1846130;77;25313;-88
2024/04/13 03:15:39;;;;;;;27.20;4.70;;;5.50;99.90;;;;;;1951300;72;26850;-88
2024/04/13 03:18:27;;;;;;;15.63;4.27;;;5.40;99.90;;;;;;1915391;75;25262;-87
2024/04/13 03:21:16;;;;;;;31.73;4.20;;;5.40;99.90;;;;;;1909350;75;25259;-87
2024/04/13 03:24:06;;;;;;;16.27;3.97;;;5.40;99.90;;;;;;1916158;75;25140;-87
2024/04/13 03:26:55;;;;;;;11.93;3.87;;;5.40;99.90;;;;;;1892657;75;25274;-87
2024/04/13 03:29:45;;;;;;;15.70;3.70;;;5.30;99.90;;;;;;1894369;75;25248;-87
2024/04/13 03:32:34;;;;;;;17.40;4.10;;;5.20;99.90;;;;;;1889839;74;25246;-87
2024/04/13 03:35:22;;;;;;;29.67;3.90;;;5.10;99.90;;;;;;1904261;75;25230;-87
2024/04/13 03:38:10;;;;;;;13.63;4.00;;;5.10;99.90;;;;;;1887173;75;25324;-87
2024/04/13 03:41:05;;;;;;;22.63;4.07;;;5.10;99.90;;;;;;1885944;74;25239;-87
2024/04/13 03:43:53;;;;;;;21.47;3.87;;;5.10;99.90;;;;;;1910948;74;25745;-87
2024/04/13 03:46:42;;;;;;;15.63;3.80;;;5.00;99.90;;;;;;1908090;74;25299;-88
2024/04/13 03:49:32;;;;;;;14.30;3.33;;;5.10;99.90;;;;;;1900507;75;25287;-88
2024/04/13 03:55:34;;;;;;;21.87;3.87;;;5.20;99.90;;;;;;1939935;71;27134;-88
2024/04/13 04:01:16;;;;;;;28.00;3.53;;;5.10;99.90;;;;;;1944061;72;27078;-88
2024/04/13 04:04:06;;;;;;;20.23;3.37;;;5.10;99.90;;;;;;1922284;73;25285;-87
2024/04/13 04:10:11;;;;;;;10.37;3.00;;;5.00;99.90;;;;;;1991003;71;26788;-88
2024/04/13 04:15:44;;;;;;;13.70;3.57;;;5.20;99.90;;;;;;1910814;74;26633;-88
2024/04/13 04:18:32;;;;;;;11.20;3.27;;;5.20;99.90;;;;;;1869098;75;25256;-88
2024/04/13 04:21:22;;;;;;;7.07;2.73;;;5.20;99.90;;;;;;1887042;75;25652;-88
2024/04/13 04:24:11;;;;;;;5.27;2.67;;;5.30;99.90;;;;;;1875628;75;25161;-88
2024/04/13 04:27:05;;;;;;;6.30;2.70;;;5.30;99.90;;;;;;1875379;75;25313;-88
2024/04/13 04:29:50;;;;;;;7.03;2.80;;;5.40;99.90;;;;;;1886923;75;25300;-88
2024/04/13 04:32:38;;;;;;;6.17;2.67;;;5.30;99.90;;;;;;1873584;75;25355;-88
2024/04/13 04:35:27;;;;;;;7.07;2.93;;;5.30;99.90;;;;;;1871291;75;26120;-88
2024/04/13 04:38:16;;;;;;;6.73;2.87;;;5.30;99.90;;;;;;1870528;75;25264;-88
2024/04/13 04:44:18;;;;;;;7.50;3.33;;;5.40;99.90;;;;;;1959551;72;27468;-88
2024/04/13 04:47:07;;;;;;;5.80;3.03;;;5.40;99.90;;;;;;1937749;73;25219;-88
2024/04/13 04:49:55;;;;;;;5.63;3.13;;;5.40;99.90;;;;;;1956827;73;25671;-88
2024/04/13 04:52:44;;;;;;;11.83;3.23;;;5.50;99.90;;;;;;1951524;73;25264;-88
2024/04/13 04:58:18;;;;;;;6.97;3.10;;;5.50;99.90;;;;;;1961504;72;27010;-88
2024/04/13 05:03:46;;;;;;;10.77;3.80;;;5.50;99.90;;;;;;1960929;72;26937;-88
2024/04/13 05:06:34;;;;;;;9.27;3.43;;;5.60;99.90;;;;;;1916756;72;25363;-87
2024/04/13 05:09:23;;;;;;;8.53;3.23;;;5.60;99.90;;;;;;1918190;72;25215;-88
2024/04/13 05:12:12;;;;;;;11.90;3.40;;;5.60;99.90;;;;;;1924783;72;25677;-88
2024/04/13 05:15:00;;;;;;;11.10;3.60;;;5.70;99.90;;;;;;1947304;72;25213;-88
2024/04/13 05:17:49;;;;;;;8.73;3.70;;;5.70;99.90;;;;;;1945786;73;25688;-88
2024/04/13 05:20:37;;;;;;;12.37;3.80;;;5.90;99.90;;;;;;1946246;73;25674;-88
2024/04/13 05:23:27;;;;;;;10.27;3.20;;;5.90;99.90;;;;;;1948986;73;25189;-88
2024/04/13 05:26:15;;;;;;;10.07;3.10;;;5.90;99.90;;;;;;1947047;73;25704;-88
2024/04/13 05:29:04;;;;;;;9.73;3.23;;;5.80;99.90;;;;;;1934483;73;25228;-88
2024/04/13 05:31:53;;;;;;;11.03;3.50;;;5.80;99.90;;;;;;1952158;72;25211;-88
2024/04/13 05:34:41;;;;;;;9.50;3.63;;;5.80;99.90;;;;;;1896294;75;25187;-88
2024/04/13 05:40:12;;;;;;;6.57;2.70;;;6.20;99.90;;;;;;1945484;72;27096;-87
2024/04/13 05:45:54;;;;;;;6.90;2.90;;;6.60;99.90;;;;;;1914802;74;27069;-88
2024/04/13 05:48:43;;;;;;;8.53;3.10;;;6.50;99.90;;;;;;1879560;76;25760;-88
2024/04/13 05:51:35;;;;;;;6.17;2.80;;;6.50;99.90;;;;;;1864677;76;25227;-88
2024/04/13 05:54:23;;;;;;;7.90;2.77;;;6.60;99.90;;;;;;1881095;75;25290;-86
2024/04/13 06:00:04;;;;;;;7.13;2.50;;;6.70;99.90;;;;;;1942633;72;27408;-86
2024/04/13 06:02:52;;;;;;;5.27;2.50;;;6.80;99.90;;;;;;1892336;75;25262;-88
2024/04/13 06:05:43;;;;;;;5.67;2.43;;;6.80;99.90;;;;;;1883068;74;25295;-88
2024/04/13 06:08:32;;;;;;;4.30;2.17;;;6.80;99.90;;;;;;1929148;74;25241;-88
2024/04/13 06:11:20;;;;;;;5.20;2.40;;;6.70;99.90;;;;;;1888832;75;25284;-88
2024/04/13 06:14:09;;;;;;;4.33;2.30;;;6.60;99.90;;;;;;1898915;75;25651;-88
2024/04/13 06:16:58;;;;;;;3.13;2.10;;;6.60;99.90;;;;;;1890184;75;25185;-88
2024/04/13 06:36:07;;;;;;;4.23;2.20;;;6.80;99.90;;;;;;1964921;72;27070;-89
2024/04/13 06:38:56;;;;;;;3.77;2.20;;;6.70;99.90;;;;;;1931767;73;25747;-89
2024/04/13 06:41:45;;;;;;;5.13;2.37;;;6.60;99.90;;;;;;1917346;73;25502;-89
2024/04/13 06:44:34;;;;;;;9.37;3.10;;;6.40;99.90;;;;;;1940831;73;25266;-89
2024/04/13 06:50:04;;;;;;;14.17;3.20;;;6.40;99.90;;;;;;1952537;72;27425;-89
2024/04/13 06:52:53;;;;;;;11.83;3.20;;;6.40;99.90;;;;;;1901130;75;25252;-89
2024/04/13 06:59:25;;;;;;;8.63;3.47;;;6.30;99.90;;;;;;1976312;71;26288;-89
2024/04/13 07:02:13;;;;;;;15.80;3.77;;;6.30;99.90;;;;;;2026438;70;25272;-89
2024/04/13 07:07:47;;;;;;;17.67;3.33;;;6.30;99.90;;;;;;1963253;72;27064;-89
2024/04/13 07:10:35;;;;;;;48.70;3.50;;;6.40;99.90;;;;;;1919263;73;25255;-89
2024/04/13 07:16:16;;;;;;;4.77;2.73;;;6.40;99.90;;;;;;1961521;72;27060;-89
2024/04/13 07:32:33;;;;;;;3.03;2.50;;;6.50;99.90;;;;;;1955190;71;27390;-88
2024/04/13 07:38:15;;;;;;;4.67;2.60;;;6.90;99.90;;;;;;1950139;72;27394;-88
2024/04/13 07:47:32;;;;;;;4.40;2.13;;;7.00;99.90;;;;;;1988148;71;27022;-89
2024/04/13 07:50:21;;;;;;;1.97;1.60;;;7.00;99.90;;;;;;2018739;70;25176;-88
2024/04/13 07:53:10;;;;;;;2.17;1.70;;;7.00;99.90;;;;;;2033291;70;25289;-88
2024/04/13 07:55:58;;;;;;;1.53;1.37;;;7.10;99.90;;;;;;1983091;72;25210;-88
2024/04/13 08:01:41;;;;;;;1.60;1.50;;;7.30;99.90;;;;;;1965090;72;27002;-89
2024/04/13 08:04:30;;;;;;;2.33;1.50;;;7.30;99.90;;;;;;1927926;72;25447;-89
2024/04/13 08:07:19;;;;;;;2.47;1.27;;;7.30;99.90;;;;;;1942977;72;26126;-90
2024/04/13 08:10:09;;;;;;;1.47;1.20;;;7.30;99.90;;;;;;1941395;72;25204;-89
2024/04/13 08:12:57;;;;;;;2.07;1.40;;;7.30;99.90;;;;;;1929401;73;25229;-88
2024/04/13 08:15:46;;;;;;;2.17;1.30;;;7.30;99.90;;;;;;1953604;72;25286;-88
2024/04/13 08:18:34;;;;;;;1.77;1.30;;;7.40;99.90;;;;;;1949276;73;25231;-89
2024/04/13 08:21:23;;;;;;;1.00;1.00;;;7.60;99.90;;;;;;1949251;72;25284;-88
2024/04/13 08:24:11;;;;;;;1.77;1.20;;;7.60;99.90;;;;;;1936453;73;25186;-88
2024/04/13 08:27:00;;;;;;;1.13;1.07;;;7.50;99.90;;;;;;1942904;73;25708;-88
2024/04/13 08:29:50;;;;;;;0.90;0.90;;;7.70;99.90;;;;;;1946335;73;25202;-88
2024/04/13 08:32:39;;;;;;;2.57;1.00;;;7.80;99.90;;;;;;1922694;73;25309;-88
2024/04/13 08:35:29;;;;;;;2.33;1.30;;;7.80;99.90;;;;;;1945704;72;25277;-88
2024/04/13 08:38:17;;;;;;;1.80;1.70;;;7.60;99.90;;;;;;1942861;72;25786;-88
2024/04/13 08:44:00;;;;;;;1.20;1.10;;;7.90;99.90;;;;;;1940883;72;27178;-89
2024/04/13 08:49:41;;;;;;;1.63;1.30;;;7.80;99.90;;;;;;1907101;74;27685;-89
2024/04/13 08:52:32;;;;;;;1.30;0.90;;;7.70;99.90;;;;;;1866149;76;25297;-89
2024/04/13 09:11:30;;;;;;;1.60;0.70;;;8.50;99.90;;;;;;1957716;72;26944;-89
2024/04/13 09:14:19;;;;;;;0.70;0.70;;;8.60;99.90;;;;;;1978348;72;25203;-89
2024/04/13 09:17:07;;;;;;;1.10;0.73;;;8.70;99.90;;;;;;1956095;72;25154;-89
2024/04/13 09:22:42;;;;;;;0.70;0.70;;;9.00;99.90;;;;;;1935192;74;26928;-89
2024/04/13 09:28:16;;;;;;;1.00;0.80;;;9.80;99.90;;;;;;2033544;69;26992;-87
2024/04/13 09:31:06;;;;;;;0.80;0.80;;;10.10;99.90;;;;;;2014550;70;25271;-87
2024/04/13 09:33:58;;;;;;;0.87;0.60;;;10.50;99.90;;;;;;2007928;70;25210;-87
2024/04/13 09:36:48;;;;;;;0.70;0.70;;;10.20;99.90;;;;;;2021125;70;25189;-89
2024/04/13 09:39:37;;;;;;;0.70;0.70;;;10.10;99.90;;;;;;2008687;70;25201;-89
2024/04/13 09:42:29;;;;;;;0.50;0.50;;;10.00;99.90;;;;;;2001142;70;25193;-88
2024/04/13 09:45:19;;;;;;;0.70;0.70;;;10.20;99.90;;;;;;2008911;70;25744;-86
2024/04/13 09:48:10;;;;;;;0.87;0.70;;;10.40;99.90;;;;;;2008249;70;25205;-88
2024/04/13 09:53:49;;;;;;;1.17;0.60;;;10.70;99.90;;;;;;1950081;72;27679;-87
2024/04/13 09:56:39;;;;;;;0.70;0.70;;;10.60;99.90;;;;;;1890854;73;25196;-87
2024/04/13 10:02:46;;;;;;;0.97;0.97;;;10.90;99.90;;;;;;1976472;71;26410;-89
2024/04/13 10:05:37;;;;;;;3.37;1.60;;;11.00;99.90;;;;;;1985380;72;25299;-88
2024/04/13 10:11:08;;;;;;;2.97;2.27;;;11.20;99.90;;;;;;1931713;72;27046;-89
2024/04/13 10:13:57;;;;;;;3.07;1.90;;;11.10;99.90;;;;;;1889299;74;25355;-88
2024/04/13 10:19:30;;;;;;;1.20;1.10;;;11.20;99.90;;;;;;1953216;72;26993;-89
2024/04/13 10:22:21;;;;;;;1.43;1.10;;;10.90;99.90;;;;;;1913763;75;25206;-89
2024/04/13 10:25:09;;;;;;;0.83;0.83;;;10.90;99.90;;;;;;1892529;75;25244;-89
2024/04/13 10:28:09;;;;;;;0.80;0.80;;;11.00;99.90;;;;;;1902581;75;25170;-87
2024/04/13 10:30:58;;;;;;;0.80;0.80;;;11.10;99.90;;;;;;1909272;75;25256;-89
2024/04/13 10:33:55;;;;;;;1.30;1.00;;;11.20;99.90;;;;;;1906845;75;25245;-89
2024/04/13 10:36:43;;;;;;;1.70;1.60;;;11.40;99.90;;;;;;1910261;75;25207;-89
2024/04/13 10:39:32;;;;;;;2.47;2.00;;;11.50;99.90;;;;;;1853577;75;26589;-89
2024/04/13 10:42:21;;;;;;;2.33;1.60;;;11.70;99.90;;;;;;1851087;76;25234;-89
2024/04/13 10:45:17;;;;;;;2.07;1.60;;;11.90;99.90;;;;;;1894053;75;25255;-89
2024/04/13 10:48:09;;;;;;;0.77;0.77;;;12.20;99.90;;;;;;1912467;75;25795;-89
2024/04/13 10:50:59;;;;;;;1.13;0.80;;;11.80;99.90;;;;;;1912098;75;25298;-89
2024/04/13 10:56:43;;;;;;;1.30;1.20;;;11.40;99.90;;;;;;1963094;72;27436;-90
2024/04/13 10:59:31;;;;;;;4.33;1.20;;;11.70;99.90;;;;;;1968906;72;25171;-89
2024/04/13 11:02:20;;;;;;;1.53;0.80;;;11.80;99.90;;;;;;1947657;72;25225;-90
2024/04/13 11:08:01;;;;;;;1.10;0.80;;;11.60;99.90;;;;;;1953919;72;26934;-90
2024/04/13 11:13:36;;;;;;;1.27;0.93;;;11.80;99.90;;;;;;1942331;73;27038;-89
2024/04/13 11:16:26;;;;;;;0.87;0.80;;;11.50;99.90;;;;;;1945165;73;25200;-89
2024/04/13 11:19:14;;;;;;;1.93;0.90;;;11.50;99.90;;;;;;1929958;73;25269;-89
2024/04/13 11:22:04;;;;;;;1.70;0.93;;;11.40;99.90;;;;;;1909281;74;25202;-89
2024/04/13 11:24:52;;;;;;;3.90;1.00;;;11.30;99.90;;;;;;1893161;74;25182;-89
2024/04/13 11:27:42;;;;;;;1.50;0.90;;;10.90;99.90;;;;;;1865425;75;25289;-88
2024/04/13 11:30:32;;;;;;;1.60;1.00;;;10.90;99.90;;;;;;1885580;74;25195;-88
2024/04/13 11:33:22;;;;;;;1.27;1.10;;;10.50;99.90;;;;;;1933313;73;25900;-88
2024/04/13 11:39:57;;;;;;;2.50;1.30;;;10.60;99.90;;;;;;1953063;71;27003;-89
2024/04/13 11:42:45;;;;;;;4.37;1.50;;;10.40;99.90;;;;;;1948391;72;25207;-89
2024/04/13 11:45:34;;;;;;;6.07;1.63;;;10.60;99.90;;;;;;1948197;72;25173;-89
2024/04/13 11:48:22;;;;;;;9.00;1.90;;;10.70;99.90;;;;;;1960711;72;25273;-89
2024/04/13 11:51:11;;;;;;;8.47;1.90;;;10.60;99.90;;;;;;1974051;72;25240;-88
2024/04/13 11:54:00;;;;;;;7.13;1.80;;;10.40;99.90;;;;;;1970294;72;25271;-89
2024/04/13 11:59:36;;;;;;;9.00;2.37;;;10.90;99.90;;;;;;1930942;73;27055;-88
2024/04/13 12:02:25;;;;;;;9.40;2.17;;;10.70;99.90;;;;;;1906642;75;25579;-89
2024/04/13 12:18:27;;;;;;;8.57;2.30;;;10.80;99.90;;;;;;1966418;72;27101;-89
2024/04/13 12:24:08;;;;;;;13.47;2.20;;;12.10;99.90;;;;;;1955403;72;26983;-89
2024/04/13 12:26:56;;;;;;;5.87;1.90;;;12.10;99.90;;;;;;1927523;72;25287;-89
2024/04/13 12:29:44;;;;;;;12.77;2.17;;;12.10;99.90;;;;;;1946067;72;26102;-89
2024/04/13 12:35:24;;;;;;;13.67;2.00;;;12.00;99.90;;;;;;1941435;72;27065;-88
2024/04/13 12:40:56;;;;;;;6.67;1.67;;;11.30;99.90;;;;;;1930121;72;27117;-88
2024/04/13 12:43:46;;;;;;;11.60;1.80;;;11.10;99.90;;;;;;1930498;73;25163;-88
2024/04/13 12:46:35;;;;;;;8.53;1.93;;;11.10;99.90;;;;;;1936339;73;25214;-88
2024/04/13 12:49:24;;;;;;;7.10;1.93;;;11.20;99.90;;;;;;1930783;73;25638;-88
2024/04/13 12:52:13;;;;;;;8.17;1.70;;;11.10;99.90;;;;;;1923939;73;25464;-88
2024/04/13 12:55:01;;;;;;;7.60;2.33;;;11.20;99.90;;;;;;1914036;73;25321;-88
2024/04/13 12:57:50;;;;;;;11.17;2.17;;;11.50;99.90;;;;;;1912625;75;25319;-88
2024/04/13 13:00:39;;;;;;;5.70;2.10;;;11.60;99.90;;;;;;1913385;75;25175;-89
2024/04/13 13:03:28;;;;;;;12.27;2.50;;;11.50;99.90;;;;;;1913370;73;25161;-89
2024/04/13 13:06:17;;;;;;;7.47;2.40;;;11.40;99.90;;;;;;1889655;75;25806;-88
2024/04/13 13:22:15;;;;;;;10.47;2.63;;;11.20;99.90;;;;;;1860681;76;27201;-89
2024/04/13 13:28:23;;;;;;;12.30;2.60;;;10.60;99.90;;;;;;1950426;71;26304;-88
2024/04/13 13:31:11;;;;;;;19.47;3.40;;;10.60;99.90;;;;;;2014887;69;25198;-88
2024/04/13 13:34:00;;;;;;;7.23;2.30;;;10.70;99.90;;;;;;1987767;71;25240;-90
2024/04/13 13:36:48;;;;;;;16.03;2.83;;;10.70;99.90;;;;;;1972559;72;25225;-87
2024/04/13 13:39:37;;;;;;;10.60;2.70;;;10.70;99.90;;;;;;2008640;70;25215;-89
2024/04/13 13:42:25;;;;;;;11.40;2.70;;;10.60;99.90;;;;;;2006534;71;25765;-88
2024/04/13 13:45:15;;;;;;;19.83;2.70;;;10.70;99.90;;;;;;1954937;73;25210;-89
2024/04/13 13:48:05;;;;;;;15.90;2.77;;;10.50;99.90;;;;;;1964328;71;25273;-88
2024/04/13 13:50:53;;;;;;;8.70;2.57;;;10.50;99.90;;;;;;1989596;70;26092;-88
2024/04/13 13:56:26;;;;;;;13.70;2.70;;;10.50;99.90;;;;;;1941314;72;27135;-87
2024/04/13 14:03:03;;;;;;;12.40;2.47;;;10.70;99.90;;;;;;2012595;70;26975;-87
2024/04/13 14:05:52;;;;;;;8.40;2.57;;;10.90;99.90;;;;;;2015835;70;25216;-88
2024/04/13 14:08:40;;;;;;;11.23;2.20;;;10.80;99.90;;;;;;1988293;71;25252;-88
2024/04/13 14:14:13;;;;;;;9.00;2.10;;;10.70;99.90;;;;;;1948771;72;27553;-87
2024/04/13 14:17:02;;;;;;;9.90;2.47;;;10.50;99.90;;;;;;1883549;75;25240;-87
2024/04/13 14:19:51;;;;;;;7.13;2.50;;;10.30;99.90;;;;;;1889026;75;25273;-87
2024/04/13 14:41:40;;;;;;;8.50;2.30;;;10.10;99.90;;;;;;2015922;71;26336;-87
2024/04/13 14:44:29;;;;;;;6.30;2.10;;;9.70;99.90;;;;;;1933706;73;25204;-89
2024/04/13 14:50:12;;;;;;;10.47;2.13;;;10.00;99.90;;;;;;1956768;72;27117;-87
2024/04/13 14:53:01;;;;;;;7.00;1.70;;;10.20;99.90;;;;;;1944987;73;25274;-88
2024/04/13 14:55:50;;;;;;;6.70;2.00;;;10.30;99.90;;;;;;1876857;75;25278;-87
2024/04/13 14:58:39;;;;;;;8.40;2.20;;;10.30;99.90;;;;;;1899862;75;25182;-88
2024/04/13 15:01:27;;;;;;;7.40;1.87;;;10.30;99.90;;;;;;1884587;74;25250;-88
2024/04/13 15:04:17;;;;;;;8.70;2.10;;;9.80;99.90;;;;;;1884023;74;25316;-88
2024/04/13 15:07:06;;;;;;;5.30;2.00;;;9.40;99.90;;;;;;1913288;75;25219;-87
2024/04/13 15:12:41;;;;;;;10.27;2.20;;;9.10;99.90;;;;;;1952054;72;27450;-89
2024/04/13 15:15:30;;;;;;;7.50;2.40;;;9.10;99.90;;;;;;1928927;73;25275;-89
2024/04/13 15:21:10;;;;;;;10.23;2.37;;;9.30;99.90;;;;;;1959979;72;27062;-89
2024/04/13 15:37:08;;;;;;;8.23;2.10;;;9.60;99.90;;;;;;1845659;77;27134;-88
2024/04/13 15:53:00;;;;;;;9.93;2.53;;;9.40;99.90;;;;;;1919078;74;27134;-87
2024/04/13 15:58:34;;;;;;;12.50;2.33;;;8.40;99.90;;;;;;1943896;72;27068;-89
2024/04/13 16:01:23;;;;;;;12.83;2.43;;;8.30;99.90;;;;;;1928771;73;25218;-89
2024/04/13 16:04:12;;;;;;;12.23;2.33;;;8.20;99.90;;;;;;1918788;73;25302;-89
2024/04/13 16:10:50;;;;;;;13.20;2.53;;;8.40;99.90;;;;;;1997122;71;26314;-88
2024/04/13 16:13:39;;;;;;;7.50;2.20;;;8.40;99.90;;;;;;2021795;70;25593;-88
2024/04/13 16:16:29;;;;;;;10.93;2.57;;;8.50;99.90;;;;;;2027994;70;25604;-88
2024/04/13 16:19:20;;;;;;;13.30;2.73;;;8.70;99.90;;;;;;2025349;70;25192;-88
2024/04/13 16:22:08;;;;;;;15.67;2.70;;;8.70;99.90;;;;;;2028411;70;25266;-88
2024/04/13 16:24:56;;;;;;;15.47;2.87;;;8.70;99.90;;;;;;2027836;70;25145;-89
2024/04/13 16:27:45;;;;;;;7.10;2.17;;;8.50;99.90;;;;;;2024036;70;25236;-88
2024/04/13 16:30:35;;;;;;;20.80;3.07;;;8.40;99.90;;;;;;2011923;70;25553;-89
2024/04/13 16:33:23;;;;;;;14.07;2.90;;;8.20;99.90;;;;;;2022527;70;25194;-89
2024/04/13 16:36:12;;;;;;;17.20;3.33;;;8.10;99.90;;;;;;2033673;70;25314;-89
2024/04/13 16:39:01;;;;;;;14.57;2.70;;;8.10;99.90;;;;;;2008208;70;25294;-88
2024/04/13 16:44:35;;;;;;;16.70;2.80;;;8.00;99.90;;;;;;1951486;72;27306;-88
2024/04/13 16:47:24;;;;;;;17.57;2.77;;;8.00;99.90;;;;;;1929896;73;25754;-88
2024/04/13 16:50:13;;;;;;;16.73;3.20;;;8.00;99.90;;;;;;1911296;73;25234;-89
2024/04/13 16:53:01;;;;;;;14.43;2.93;;;8.00;99.90;;;;;;1889460;75;25224;-87
2024/04/13 16:55:50;;;;;;;16.97;3.20;;;8.00;99.90;;;;;;1852508;75;25644;-87
2024/04/13 16:58:39;;;;;;;15.73;2.50;;;8.00;99.90;;;;;;1862810;75;25241;-86
2024/04/13 17:01:27;;;;;;;16.27;3.07;;;8.20;99.90;;;;;;1847616;76;25278;-87
2024/04/13 17:04:17;;;;;;;11.37;2.87;;;8.00;99.90;;;;;;1853939;76;25363;-87
2024/04/13 17:09:46;;;;;;;16.57;2.97;;;7.70;99.90;;;;;;1946183;72;27010;-86
2024/04/13 17:12:35;;;;;;;17.83;3.57;;;7.80;99.90;;;;;;1899268;74;25295;-88
2024/04/13 17:15:26;;;;;;;19.77;3.03;;;7.80;99.90;;;;;;1899055;75;26573;-88
2024/04/13 17:18:15;;;;;;;13.80;3.33;;;7.70;99.90;;;;;;1891583;75;25162;-88
2024/04/13 17:23:49;;;;;;;15.33;2.70;;;7.50;99.90;;;;;;1972824;72;27112;-88
2024/04/13 17:26:37;;;;;;;22.87;3.27;;;7.70;99.90;;;;;;1916848;75;25233;-88
2024/04/13 17:29:26;;;;;;;21.07;3.07;;;8.00;99.90;;;;;;1917155;75;25190;-88
2024/04/13 17:32:16;;;;;;;16.60;3.17;;;8.20;99.90;;;;;;1922626;73;25693;-88
2024/04/13 17:35:09;;;;;;;17.20;3.00;;;8.20;99.90;;;;;;1939799;73;25696;-88
2024/04/13 17:37:57;;;;;;;19.23;3.10;;;8.30;99.90;;;;;;1936530;73;25637;-87
2024/04/13 17:40:46;;;;;;;17.33;3.57;;;8.20;99.90;;;;;;1938171;73;25759;-88
2024/04/13 17:43:35;;;;;;;24.00;3.37;;;8.00;99.90;;;;;;1918962;73;25727;-87
2024/04/13 17:46:24;;;;;;;18.27;2.60;;;7.50;99.90;;;;;;1939708;73;25828;-88
2024/04/13 17:49:13;;;;;;;25.00;3.10;;;7.50;99.90;;;;;;1945079;73;25252;-87
2024/04/13 17:52:01;;;;;;;16.67;2.83;;;7.50;99.90;;;;;;1917960;73;25212;-88
2024/04/13 17:54:49;;;;;;;22.93;3.47;;;7.40;99.90;;;;;;1918186;73;25911;-87
2024/04/13 17:57:40;;;;;;;17.77;2.40;;;7.50;99.90;;;;;;1938757;73;25634;-88
2024/04/13 18:03:20;;;;;;;15.20;2.33;;;7.50;99.90;;;;;;1948936;72;26924;-89
2024/04/13 18:06:09;;;;;;;17.57;2.63;;;7.50;99.90;;;;;;1927635;73;25226;-89
2024/04/13 18:08:58;;;;;;;19.43;2.80;;;7.40;99.90;;;;;;1916767;73;25266;-88
2024/04/13 18:11:47;;;;;;;13.70;2.30;;;7.30;99.90;;;;;;1916476;73;25187;-86
2024/04/13 18:14:35;;;;;;;14.70;2.60;;;7.20;99.90;;;;;;1934981;73;25269;-88
2024/04/13 18:17:25;;;;;;;30.17;3.77;;;7.10;99.90;;;;;;1947487;73;25244;-88
2024/04/13 18:20:14;;;;;;;11.23;2.53;;;7.10;99.90;;;;;;1923416;72;25631;-87
2024/04/13 18:23:02;;;;;;;16.23;2.13;;;7.10;99.90;;;;;;1950661;72;25286;-87
2024/04/13 18:25:51;;;;;;;13.93;2.27;;;7.00;99.90;;;;;;1940247;72;25225;-86
2024/04/13 18:28:40;;;;;;;18.50;2.80;;;6.90;99.90;;;;;;1884227;75;25272;-86
2024/04/13 18:31:29;;;;;;;19.30;2.70;;;7.00;99.90;;;;;;1901258;74;25210;-86
2024/04/13 18:34:18;;;;;;;18.60;2.80;;;7.20;99.90;;;;;;1895056;75;25239;-86
2024/04/13 18:37:08;;;;;;;19.53;2.70;;;7.30;99.90;;;;;;1876456;75;25292;-86
2024/04/13 18:39:56;;;;;;;17.27;2.67;;;7.40;99.90;;;;;;1888431;75;25283;-86
2024/04/13 18:45:31;;;;;;;18.13;2.53;;;7.20;99.90;;;;;;1966729;72;27403;-87
2024/04/13 18:50:59;;;;;;;18.90;2.57;;;7.30;99.90;;;;;;1928087;72;27067;-87
2024/04/13 18:53:47;;;;;;;18.57;2.70;;;7.40;99.90;;;;;;1899107;75;26405;-87
2024/04/13 18:56:36;;;;;;;15.53;2.60;;;7.40;99.90;;;;;;1881096;76;25198;-87
2024/04/13 18:59:25;;;;;;;24.00;2.63;;;7.30;99.90;;;;;;1890991;75;25173;-87
2024/04/13 19:02:13;;;;;;;14.53;2.60;;;7.20;99.90;;;;;;1894087;75;25247;-87
2024/04/13 19:05:02;;;;;;;20.00;2.50;;;7.10;99.90;;;;;;1895688;75;25226;-87
2024/04/13 19:07:51;;;;;;;21.07;2.63;;;7.00;99.90;;;;;;1892638;75;25249;-86
2024/04/13 19:10:40;;;;;;;15.83;2.40;;;6.90;99.90;;;;;;1903617;75;25354;-86
2024/04/13 19:16:15;;;;;;;13.70;2.50;;;6.40;99.90;;;;;;1940445;72;27096;-87
2024/04/13 19:19:04;;;;;;;23.50;2.80;;;6.30;99.90;;;;;;1845495;76;25196;-87
2024/04/13 19:21:52;;;;;;;19.20;2.63;;;6.40;99.90;;;;;;1855316;77;25279;-87
2024/04/13 19:27:21;;;;;;;18.10;2.30;;;6.40;99.90;;;;;;1945758;72;28075;-87
2024/04/13 19:32:52;;;;;;;15.17;2.60;;;6.30;99.90;;;;;;1930714;72;27191;-88
2024/04/13 19:35:41;;;;;;;19.87;2.77;;;6.20;99.90;;;;;;1881036;76;25231;-87
2024/04/13 19:38:29;;;;;;;21.00;2.33;;;6.30;99.90;;;;;;1849875;76;25283;-87
2024/04/13 19:41:18;;;;;;;22.07;2.53;;;6.30;99.90;;;;;;1877622;75;25223;-87
2024/04/13 19:44:07;;;;;;;15.30;2.27;;;6.50;99.90;;;;;;1876598;76;25208;-87